Oakland, CA (94601)

10:09 AM PDT on July 03, 2015 (GMT -0700)
ALLENDALE | | Change Station
CLOSE
Current Station
Personal Weather Station
Location: Oakland, CA
Elevation: 141 ft
Nearby Weather Stations

Elev 141 ft 37.79 °N, 122.20 °W | Updated 11 minutes ago

Mostly Cloudy
Mostly Cloudy
75.6 °F
Feels Like 78 °F
N
2.7
Wind Variable Wind from East

Today
High -- | Low -- °F
--% Chance of Precip.
Yesterday
High -- | Low -- °F
Precip. -- in
5:51 AM 8:34 PM
Waning Gibbous, 97% visible
Pressure 29.96 in
Visibility 10.0 miles
Clouds Few 700 ft
Overcast 1100 ft
Heat Index 78 °F
Dew Point 60 °F
Humidity 59%
Rainfall 0.00 in
Snow Depth Not available.
UV 2 out of 12
Pollen 4.00 out of 12
Air Quality Not available.
Flu Activity Not available.
METAR KOAK 031653Z 30008KT 10SM FEW007 OVC011 18/14 A2997 RMK AO2 SLP146 T01780139

More Conditions Fewer Conditions

Pressure 29.96 in
Visibility 10.0 miles
Clouds Few 700 ft
Overcast 1100 ft
Heat Index 78 °F
Dew Point 60 °F
Humidity 59%
Rainfall 0.00 in
Snow Depth Not available.
UV 2 out of 12
Pollen 4.00 out of 12
Air Quality Not available.
Flu Activity Not available.
METAR KOAK 031653Z 30008KT 10SM FEW007 OVC011 18/14 A2997 RMK AO2 SLP146 T01780139

More Conditions Fewer Conditions

10-Day Weather Forecast

×

Almanac

Astronomy

Jul. 03, 2015 Rise Set
Actual Time
Civil Twilight
Nautical Twilight
Astronomical Twilight
Moon
Length of Visible Light
Length of Day
Tomorrow will be .
, % of the Moon is Illuminated

Today's Extremes

State Highs State Lows

Community

WunderPhotos

Upload Photos

1,834,702 photos uploaded!

WunderBlogs® & News

Nearby

Air Quality

  Air Quality AQ Index Pollutant
Not available.

Snow Depth

Station Depth Elevation

Earthquake Activity

City Distance Mag. Time & Date
Minimum magnitude displayed is 2.5.

Coastal Water Temperatures

Place Temperature

Stations

Nearby Weather Stations

Station Location Temp. Windchill Dew Point Humidity Wind Precip. Elev Updated Type